Time;durP1;ratioP1;P1;durP2;ratioP2;P2;SDS_P1;SDS_P2;PMS_P1;PMS_P2;Temp;Humidity;BMP_temperature;BMP_pressure;BME280_temperature;BME280_humidity;BME280_pressure;Samples;Min_cycle;Max_cycle;Signal;HPM_P1;HPM_P2
2022/04/14 00:01:06;;;;;;;8.13;2.30;;;;;;;7.27;92.76;100132.16;10255896;29;20158;-76
2022/04/14 00:06:06;;;;;;;6.95;1.85;;;;;;;6.88;92.60;100078.78;10257545;29;20078;-75
2022/04/14 00:11:07;;;;;;;3.88;1.95;;;;;;;7.09;93.10;100111.03;10257387;29;20066;-76
2022/04/14 00:16:08;;;;;;;3.80;1.85;;;;;;;7.08;92.57;100104.06;10257734;29;20039;-76
2022/04/14 00:21:09;;;;;;;4.38;2.00;;;;;;;7.04;92.59;100105.34;10256589;29;20039;-76
2022/04/14 00:26:09;;;;;;;6.15;2.08;;;;;;;6.91;92.53;100071.41;10256820;28;20054;-76
2022/04/14 00:31:10;;;;;;;4.20;2.10;;;;;;;6.69;92.87;100042.78;10256806;29;20118;-77
2022/04/14 00:36:11;;;;;;;3.63;1.63;;;;;;;7.37;92.55;100138.16;10255928;29;20047;-76
2022/04/14 00:41:12;;;;;;;4.45;1.77;;;;;;;7.48;92.66;100140.59;10256496;29;20051;-77
2022/04/14 00:46:12;;;;;;;4.55;1.65;;;;;;;7.15;92.67;100073.44;10256058;29;20046;-77
2022/04/14 00:51:13;;;;;;;8.65;3.08;;;;;;;7.50;92.50;100120.09;10255357;29;20040;-77
2022/04/14 00:56:15;;;;;;;9.88;3.03;;;;;;;7.56;91.72;100145.09;10255114;28;20047;-77
2022/04/14 01:01:16;;;;;;;8.30;2.60;;;;;;;6.64;92.29;99979.88;10255245;29;20063;-77
2022/04/14 01:06:19;;;;;;;4.75;2.00;;;;;;;6.89;91.91;100025.00;10254726;29;20055;-77
2022/04/14 01:11:20;;;;;;;4.07;1.70;;;;;;;7.61;91.98;100134.91;10254532;29;20423;-78
2022/04/14 01:16:21;;;;;;;3.42;1.80;;;;;;;6.91;91.91;100009.81;10255461;29;20719;-77
2022/04/14 01:21:22;;;;;;;3.58;1.45;;;;;;;7.60;91.91;100127.97;10254102;29;20070;-77
2022/04/14 01:26:23;;;;;;;6.75;1.80;;;;;;;7.28;91.53;100092.34;10255563;29;20047;-78
2022/04/14 01:31:24;;;;;;;3.90;1.60;;;;;;;7.27;92.21;100121.59;10254883;29;20051;-78
2022/04/14 01:36:24;;;;;;;5.22;1.90;;;;;;;7.36;91.75;100162.09;10253124;28;20457;-77
2022/04/14 01:41:25;;;;;;;4.93;1.52;;;;;;;7.26;92.05;100172.75;10253502;29;20039;-77
2022/04/14 01:46:26;;;;;;;9.23;1.80;;;;;;;7.06;92.32;100150.94;10252780;29;20039;-78
2022/04/14 01:51:27;;;;;;;8.00;1.77;;;;;;;5.92;91.86;99990.34;10253527;29;20061;-77
2022/04/14 01:56:28;;;;;;;5.75;1.88;;;;;;;6.75;91.93;100169.75;10252790;28;20057;-78
2022/04/14 02:01:29;;;;;;;10.55;2.13;;;;;;;6.75;91.91;100174.19;10252704;29;20454;-77
2022/04/14 02:06:30;;;;;;;5.05;1.80;;;;;;;6.03;92.29;100057.91;10253752;29;20061;-77
2022/04/14 02:11:30;;;;;;;4.68;1.60;;;;;;;6.78;92.29;100189.75;10250944;29;20039;-77
2022/04/14 02:16:34;;;;;;;6.00;1.80;;;;;;;6.65;91.68;100174.25;10252648;29;20051;-77
2022/04/14 02:21:34;;;;;;;8.85;2.08;;;;;;;6.58;91.56;100162.59;10252584;29;20050;-77
2022/04/14 02:26:35;;;;;;;6.07;1.73;;;;;;;5.94;91.72;100075.41;10251858;29;20043;-77
2022/04/14 02:31:36;;;;;;;5.47;2.00;;;;;;;6.57;91.77;100188.16;10250721;29;20049;-77
2022/04/14 02:36:37;;;;;;;4.55;1.75;;;;;;;5.82;91.66;100046.72;10252125;29;20070;-77
2022/04/14 02:41:37;;;;;;;4.35;1.70;;;;;;;6.03;91.64;100083.44;10244144;29;20502;-77
2022/04/14 02:46:38;;;;;;;7.35;1.70;;;;;;;5.63;91.38;99997.56;10305454;28;20038;-76
2022/04/14 02:51:39;;;;;;;5.50;1.88;;;;;;;6.49;91.16;100119.47;10311822;28;20043;-76
2022/04/14 02:56:40;;;;;;;8.18;1.83;;;;;;;6.59;91.44;100129.97;10286558;28;20095;-76
2022/04/14 03:01:40;;;;;;;3.42;1.90;;;;;;;6.41;91.39;100082.44;10290543;28;20062;-76
2022/04/14 03:06:41;;;;;;;5.50;2.08;;;;;;;6.09;90.21;99995.84;10292639;28;20418;-76
2022/04/14 03:11:42;;;;;;;7.78;1.77;;;;;;;7.87;89.40;100203.69;10291824;28;20053;-77
2022/04/14 03:16:43;;;;;;;2.85;1.30;;;;;;;7.56;88.43;100055.22;10288149;28;20042;-76
2022/04/14 03:21:46;;;;;;;2.45;1.27;;;;;;;8.49;87.26;100079.16;10288220;28;20054;-75
2022/04/14 03:26:47;;;;;;;2.40;1.20;;;;;;;8.89;85.31;100135.88;10288515;28;20134;-76
2022/04/14 03:31:47;;;;;;;3.28;1.60;;;;;;;9.06;83.67;100104.94;10296973;28;20125;-76
2022/04/14 03:36:48;;;;;;;3.95;1.05;;;;;;;9.99;80.56;100129.25;10325911;28;20073;-78
2022/04/14 03:41:49;;;;;;;3.58;1.38;;;;;;;10.28;79.37;100204.88;10330955;28;20042;-78
2022/04/14 03:46:49;;;;;;;3.92;0.90;;;;;;;11.12;77.11;100227.28;10330342;28;20449;-77
2022/04/14 03:51:54;;;;;;;1.52;0.80;;;;;;;11.61;74.04;100170.31;10291531;28;20089;-79
2022/04/14 03:56:55;;;;;;;3.08;0.88;;;;;;;12.24;71.76;100210.84;10290543;28;20039;-77
2022/04/14 04:01:57;;;;;;;8.07;0.90;;;;;;;12.29;69.66;100219.09;10295155;28;20063;-79
2022/04/14 04:06:59;;;;;;;4.43;0.82;;;;;;;11.88;68.94;100174.25;10295164;28;20046;-81
2022/04/14 04:12:00;;;;;;;1.52;0.68;;;;;;;12.46;68.64;100231.25;10300228;28;20055;-82
2022/04/14 04:17:02;;;;;;;1.27;0.52;;;;;;;12.48;68.55;100204.44;10322944;28;20066;-79
2022/04/14 04:22:03;;;;;;;1.40;0.57;;;;;;;11.97;67.92;100119.13;10281878;28;20426;-78
2022/04/14 04:27:05;;;;;;;1.20;0.57;;;;;;;12.45;66.29;100236.78;10296021;28;20051;-79
2022/04/14 04:32:06;;;;;;;1.63;0.68;;;;;;;11.72;66.53;100126.47;10295866;28;20090;-79
2022/04/14 04:37:07;;;;;;;1.42;0.60;;;;;;;12.13;66.21;100193.47;10294858;28;20041;-79
2022/04/14 04:42:08;;;;;;;3.10;0.52;;;;;;;12.13;65.49;100196.13;10261500;28;20061;-83
2022/04/14 04:47:09;;;;;;;1.20;0.60;;;;;;;11.77;66.15;100140.88;10265050;28;20043;-87
2022/04/14 04:52:09;;;;;;;1.10;0.50;;;;;;;12.19;65.67;100238.03;10296333;28;20049;-85
2022/04/14 04:57:10;;;;;;;5.00;0.50;;;;;;;10.88;67.24;100145.84;10295631;28;20039;-82
2022/04/14 05:02:12;;;;;;;2.20;0.50;;;;;;;10.01;68.87;100091.94;10295850;28;20062;-80
2022/04/14 05:07:13;;;;;;;2.80;0.50;;;;;;;10.81;69.31;100251.19;10295811;28;20111;-81
2022/04/14 05:12:13;;;;;;;1.13;0.47;;;;;;;10.64;69.55;100205.25;10294503;28;20043;-80
2022/04/14 05:17:14;;;;;;;2.40;0.60;;;;;;;10.63;70.01;100190.31;10294278;28;20122;-81
2022/04/14 05:22:17;;;;;;;2.83;0.43;;;;;;;11.41;70.30;100239.94;10294601;28;20046;-81
2022/04/14 05:27:18;;;;;;;4.13;0.43;;;;;;;11.16;69.61;100195.88;10294519;28;20043;-83
2022/04/14 05:32:19;;;;;;;0.57;0.30;;;;;;;11.33;70.18;100236.50;10294791;28;20050;-80
2022/04/14 05:37:19;;;;;;;0.85;0.43;;;;;;;10.60;69.78;100158.78;10294218;28;20049;-85
2022/04/14 05:42:21;;;;;;;1.13;0.50;;;;;;;10.48;71.01;100123.00;10294147;28;20097;-79
2022/04/14 05:47:24;;;;;;;1.17;0.43;;;;;;;11.12;70.39;100218.50;10294047;28;20459;-85
2022/04/14 05:52:25;;;;;;;1.30;0.40;;;;;;;11.23;70.10;100252.66;10293675;28;20046;-82
2022/04/14 05:57:26;;;;;;;1.85;0.50;;;;;;;10.79;69.87;100165.50;10293212;28;20042;-81
2022/04/14 06:02:27;;;;;;;1.63;0.57;;;;;;;11.56;69.74;100233.84;10293420;28;20058;-83
2022/04/14 06:07:28;;;;;;;1.45;0.60;;;;;;;11.84;69.18;100220.81;10292617;28;20065;-82
2022/04/14 06:12:28;;;;;;;1.75;0.60;;;;;;;11.22;68.06;100075.53;10292418;28;20043;-82
2022/04/14 06:17:29;;;;;;;3.13;0.65;;;;;;;12.36;67.19;100214.72;10292753;28;20125;-81
2022/04/14 06:22:43;;;;;;;3.70;0.98;;;;;;;12.92;67.51;100256.88;10291657;28;20442;-80
2022/04/14 06:27:45;;;;;;;3.65;1.30;;;;;;;12.38;65.81;100132.78;10291837;28;20403;-81
2022/04/14 06:33:03;;;;;;;3.92;1.00;;;;;;;11.84;63.72;100018.53;10292014;28;20498;-81
2022/04/14 06:38:04;;;;;;;6.47;1.10;;;;;;;13.11;63.71;100245.66;10292519;28;20035;-81
2022/04/14 06:43:05;;;;;;;4.32;1.08;;;;;;;12.59;63.48;100227.94;10291366;28;20101;-81
2022/04/14 06:48:08;;;;;;;5.78;1.17;;;;;;;12.26;63.60;100183.00;10291753;28;20561;-81
2022/04/14 06:53:09;;;;;;;4.70;1.30;;;;;;;12.17;63.03;100178.78;10291743;28;20074;-81
2022/04/14 06:58:10;;;;;;;15.27;1.80;;;;;;;12.39;62.81;100173.56;10291240;28;20070;-82
2022/04/14 07:03:12;;;;;;;9.98;1.10;;;;;;;12.41;61.63;100163.53;10292343;28;20145;-84
2022/04/14 07:08:12;;;;;;;10.15;1.30;;;;;;;12.40;61.55;100184.03;10290972;28;20050;-84
2022/04/14 07:13:13;;;;;;;7.93;1.98;;;;;;;12.43;60.38;100225.47;10291191;28;20077;-84
2022/04/14 07:18:14;;;;;;;4.70;1.13;;;;;;;11.65;60.29;100026.06;10292088;28;20134;-86
2022/04/14 07:23:15;;;;;;;3.90;1.80;;;;;;;12.03;60.31;100079.25;10291755;28;20043;-82
2022/04/14 07:28:16;;;;;;;6.63;1.10;;;;;;;12.89;60.42;100214.59;10291163;28;20133;-88
2022/04/14 07:33:17;;;;;;;4.88;1.10;;;;;;;12.40;59.26;100114.78;10292006;28;20042;-84
2022/04/14 07:38:17;;;;;;;6.82;1.65;;;;;;;12.33;59.35;100076.59;10299606;28;20043;-89
2022/04/14 07:43:19;;;;;;;5.53;1.10;;;;;;;12.43;58.63;100001.69;10299348;28;20054;-87
2022/04/14 07:48:22;;;;;;;5.18;1.00;;;;;;;13.83;57.27;100198.59;10299730;28;20087;-83
2022/04/14 07:53:23;;;;;;;9.45;1.90;;;;;;;12.56;57.15;99991.16;10298869;28;20538;-86
2022/04/14 07:58:23;;;;;;;6.57;1.58;;;;;;;13.35;56.76;100127.13;10298740;28;20054;-85
2022/04/14 08:03:24;;;;;;;8.43;1.42;;;;;;;13.29;56.82;100116.41;10297813;28;20396;-87
2022/04/14 08:08:25;;;;;;;2.53;0.88;;;;;;;13.75;56.08;100124.78;10299628;28;20038;-85
2022/04/14 08:13:27;;;;;;;6.18;1.10;;;;;;;13.71;55.55;100054.13;10299068;28;20046;-88
2022/04/14 08:18:28;;;;;;;5.32;1.00;;;;;;;14.08;54.80;100098.28;10297695;28;20047;-83
2022/04/14 08:23:30;;;;;;;5.50;1.13;;;;;;;14.87;55.89;100187.94;10297180;28;20043;-84
2022/04/14 08:28:31;;;;;;;3.78;1.00;;;;;;;14.68;54.10;100136.03;10296799;28;20039;-84
2022/04/14 08:33:32;;;;;;;4.63;0.90;;;;;;;14.38;55.51;100188.91;10296269;28;20093;-83
2022/04/14 08:38:33;;;;;;;8.10;0.95;;;;;;;14.52;55.21;100190.66;10296720;28;20134;-84
2022/04/14 08:43:36;;;;;;;67.80;4.40;;;;;;;13.76;56.19;100021.50;10296367;28;20427;-83
2022/04/14 08:48:39;;;;;;;6.37;1.10;;;;;;;14.54;55.55;100150.38;10296077;28;20047;-81
2022/04/14 08:53:42;;;;;;;5.72;0.90;;;;;;;13.94;55.88;100155.34;10296725;28;20073;-83
2022/04/14 08:58:44;;;;;;;5.18;1.55;;;;;;;13.81;56.51;100172.06;10295187;28;20502;-84
2022/04/14 09:03:45;;;;;;;4.10;1.55;;;;;;;14.03;56.76;100159.50;10296021;28;20145;-83
2022/04/14 09:08:47;;;;;;;4.38;1.05;;;;;;;14.12;55.24;100128.94;10295569;28;20129;-86
2022/04/14 09:13:48;;;;;;;3.25;1.00;;;;;;;14.79;55.28;100138.13;10295388;28;20050;-89
2022/04/14 09:18:49;;;;;;;4.55;0.90;;;;;;;15.01;54.05;100116.59;10295089;28;20047;-85
2022/04/14 09:23:54;;;;;;;4.63;1.00;;;;;;;14.61;53.44;99986.31;10295246;28;20038;-85
2022/04/14 09:29:13;;;;;;;3.58;0.80;;;;;;;15.45;53.31;100051.78;10294617;28;20215;-85
2022/04/14 09:34:18;;;;;;;2.33;0.70;;;;;;;15.75;51.57;100064.75;10294767;28;20042;-87
2022/04/14 09:39:21;;;;;;;4.95;0.95;;;;;;;16.08;50.60;100026.34;10294538;28;20038;-85
2022/04/14 09:44:23;;;;;;;15.77;1.40;;;;;;;16.09;49.89;100026.13;10294386;28;20486;-82
2022/04/14 09:49:23;;;;;;;5.70;1.30;;;;;;;17.09;51.01;100149.06;10294142;28;20049;-85
2022/04/14 09:54:28;;;;;;;4.30;0.90;;;;;;;17.48;48.92;100129.19;10293717;28;20517;-87
2022/04/14 09:59:30;;;;;;;3.30;0.80;;;;;;;16.56;48.39;100025.94;10292994;28;20125;-84
2022/04/14 10:04:33;;;;;;;4.30;1.08;;;;;;;17.34;48.61;100144.56;10293769;28;20054;-85
2022/04/14 10:09:38;;;;;;;9.40;1.48;;;;;;;17.25;48.16;100153.09;10294290;28;20109;-87
2022/04/14 10:14:39;;;;;;;5.72;0.80;;;;;;;17.23;48.63;100122.94;10294260;28;20468;-87
2022/04/14 10:19:41;;;;;;;5.80;1.27;;;;;;;16.60;48.63;100064.66;10292793;28;20134;-85
2022/04/14 10:24:43;;;;;;;4.72;1.00;;;;;;;16.39;49.04;100095.28;10292952;28;20038;-84
2022/04/14 10:29:46;;;;;;;5.60;1.20;;;;;;;16.61;50.12;100117.28;10293161;28;20514;-85
2022/04/14 10:34:49;;;;;;;3.28;1.00;;;;;;;16.30;49.56;100113.47;10292890;28;20042;-84
2022/04/14 10:39:49;;;;;;;2.15;0.75;;;;;;;15.00;50.40;99995.41;10292707;28;20042;-85
2022/04/14 10:44:52;;;;;;;1.95;0.65;;;;;;;15.44;50.40;100135.81;10292021;28;20046;-86
2022/04/14 10:49:53;;;;;;;5.13;1.10;;;;;;;15.03;51.62;100069.06;10292286;28;20039;-85
2022/04/14 10:54:57;;;;;;;2.60;0.80;;;;;;;14.97;51.41;100032.44;10292264;28;20173;-83
2022/04/14 10:59:57;;;;;;;3.30;0.90;;;;;;;15.32;51.14;100024.22;10292516;28;20050;-84
2022/04/14 11:04:59;;;;;;;3.05;0.90;;;;;;;15.76;50.84;99996.75;10290482;28;20047;-75
2022/04/14 11:10:00;;;;;;;1.67;0.70;;;;;;;16.05;49.07;99986.59;10295567;28;20129;-74
2022/04/14 11:15:06;;;;;;;2.28;0.60;;;;;;;16.38;48.67;100006.00;10299158;28;20074;-75
2022/04/14 11:20:35;;;;;;;3.00;0.80;;;;;;;16.96;47.30;100080.22;10308594;28;20081;-74
2022/04/14 11:25:39;;;;;;;6.85;0.57;;;;;;;15.79;47.36;99961.53;10300374;28;20046;-75
2022/04/14 11:30:40;;;;;;;6.32;0.80;;;;;;;15.89;46.92;99980.66;10299700;28;20210;-75
2022/04/14 11:35:45;;;;;;;3.80;0.80;;;;;;;15.82;47.62;99982.53;10319270;28;20054;-76
2022/04/14 11:40:55;;;;;;;3.80;0.77;;;;;;;16.29;48.23;100085.03;10297998;28;20050;-75
2022/04/14 11:45:56;;;;;;;1.67;0.68;;;;;;;15.74;48.92;100022.97;10337209;28;20049;-75
2022/04/14 11:50:58;;;;;;;4.57;0.95;;;;;;;16.45;48.92;100081.03;10308306;28;20043;-76
2022/04/14 11:55:59;;;;;;;4.25;0.80;;;;;;;15.90;49.56;100032.38;10296497;28;20054;-76
2022/04/14 12:01:06;;;;;;;1.45;0.65;;;;;;;15.67;49.37;100019.41;10282746;28;20076;-75
2022/04/14 12:06:14;;;;;;;2.75;0.85;;;;;;;15.10;50.27;99932.63;10293613;28;20070;-75
2022/04/14 12:11:20;;;;;;;2.42;0.85;;;;;;;15.63;49.88;100023.56;10295551;28;20094;-75
2022/04/14 12:16:20;;;;;;;1.75;0.75;;;;;;;16.02;49.40;100086.13;10309318;28;20047;-76
2022/04/14 12:21:28;;;;;;;2.78;0.85;;;;;;;15.71;49.37;99985.88;10305100;28;20050;-77
2022/04/14 12:26:30;;;;;;;2.45;0.70;;;;;;;16.44;48.02;100018.56;10282772;28;20435;-79
2022/04/14 12:31:30;;;;;;;2.75;0.80;;;;;;;16.55;47.88;100083.28;10275723;28;20058;-80
2022/04/14 12:36:38;;;;;;;2.58;0.93;;;;;;;15.90;47.94;100033.19;10308483;28;20122;-78
2022/04/14 12:41:39;;;;;;;2.58;0.70;;;;;;;15.95;48.48;100040.63;10313711;28;20081;-80
2022/04/14 12:46:41;;;;;;;3.55;0.60;;;;;;;15.59;47.79;100004.41;10309552;28;20070;-80
2022/04/14 12:51:45;;;;;;;2.83;0.80;;;;;;;16.38;47.69;100088.28;10315675;28;20042;-80
2022/04/14 12:56:56;;;;;;;;;;;;;;;16.52;48.09;100089.88;10326061;28;20046;-75
2022/04/14 13:02:03;;;;;;;1.30;0.60;;;;;;;15.13;48.78;99925.00;10270485;28;19926;-78
2022/04/14 13:07:07;;;;;;;1.85;0.60;;;;;;;15.99;48.99;100100.78;10280210;28;20058;-77
2022/04/14 13:12:09;;;;;;;6.63;0.80;;;;;;;15.86;49.17;100098.94;10333389;28;20049;-78
2022/04/14 13:17:10;;;;;;;8.45;0.82;;;;;;;14.44;48.71;99886.13;10334173;28;20064;-78
2022/04/14 13:22:11;;;;;;;3.95;0.75;;;;;;;15.07;48.70;99996.22;10308146;28;20046;-78
2022/04/14 13:27:12;;;;;;;2.78;0.93;;;;;;;15.75;49.04;100073.63;10286506;28;20042;-78
2022/04/14 13:32:13;;;;;;;2.40;0.60;;;;;;;15.75;48.60;100046.84;10312023;28;20422;-77
2022/04/14 13:37:14;;;;;;;2.45;0.80;;;;;;;14.77;47.98;99922.75;10313838;28;20046;-78
2022/04/14 13:42:15;;;;;;;2.33;0.70;;;;;;;15.41;48.34;100037.19;10311980;28;20045;-78
2022/04/14 13:47:15;;;;;;;5.05;0.68;;;;;;;15.20;48.09;99999.94;10299304;28;20074;-78
2022/04/14 13:52:17;;;;;;;4.70;0.70;;;;;;;15.50;47.47;100054.69;10296706;28;20055;-77
2022/04/14 13:57:18;;;;;;;5.95;1.05;;;;;;;15.59;47.56;100103.47;10302451;28;20047;-78
2022/04/14 14:02:18;;;;;;;9.50;0.80;;;;;;;15.26;48.77;100095.44;10297808;28;20447;-79
2022/04/14 14:07:19;;;;;;;4.43;0.57;;;;;;;14.64;48.99;100053.78;10252983;29;20047;-78
2022/04/14 14:12:20;;;;;;;1.45;0.50;;;;;;;14.96;49.51;100130.59;10253523;29;20411;-78
2022/04/14 14:17:21;;;;;;;4.10;0.60;;;;;;;14.30;50.22;100036.78;10252411;29;20050;-78
2022/04/14 14:22:22;;;;;;;5.57;0.82;;;;;;;13.82;49.99;99992.19;10252623;29;20054;-78
2022/04/14 14:27:22;;;;;;;3.58;0.75;;;;;;;13.84;49.91;99999.97;10252612;29;20039;-77
2022/04/14 14:32:23;;;;;;;3.28;1.02;;;;;;;14.03;50.43;100022.44;10250547;29;20043;-78
2022/04/14 14:37:25;;;;;;;5.55;0.80;;;;;;;13.92;50.61;100013.16;10282114;28;20074;-78
2022/04/14 14:42:26;;;;;;;4.63;0.90;;;;;;;14.63;50.69;100108.25;10307180;28;20078;-79
2022/04/14 14:47:27;;;;;;;8.73;0.82;;;;;;;14.92;50.78;100132.00;10308726;28;20043;-79
2022/04/14 14:52:27;;;;;;;4.28;0.52;;;;;;;14.56;50.20;100068.13;10327697;28;20038;-78
2022/04/14 15:02:48;;;;;;;6.07;0.85;;;;;;;13.85;51.18;99974.91;10290453;28;20070;-78
2022/04/14 15:07:51;;;;;;;9.55;0.82;;;;;;;14.44;50.98;100080.38;10250479;29;20130;-78
2022/04/14 15:12:54;;;;;;;4.10;0.77;;;;;;;15.15;50.78;100189.69;10251054;29;20503;-78
2022/04/14 15:18:03;;;;;;;4.80;0.70;;;;;;;14.47;50.94;100102.19;10251733;29;20045;-78
2022/04/14 15:23:05;;;;;;;3.40;0.80;;;;;;;14.22;51.26;100098.38;10251812;29;20062;-78
2022/04/14 15:28:08;;;;;;;3.70;0.93;;;;;;;14.78;51.42;100221.25;10251827;29;20094;-77
2022/04/14 15:33:09;;;;;;;3.77;0.90;;;;;;;14.44;52.21;100211.34;10250568;29;20526;-77
2022/04/14 15:38:10;;;;;;;3.70;0.85;;;;;;;14.07;52.64;100208.03;10261538;28;20113;-78
2022/04/14 15:43:11;;;;;;;11.40;1.33;;;;;;;13.76;53.13;100211.03;10253565;28;20055;-79
2022/04/14 15:48:12;;;;;;;4.95;1.60;;;;;;;12.70;53.96;100078.22;10287404;28;20046;-78
2022/04/14 15:53:14;;;;;;;15.38;5.28;;;;;;;12.54;53.53;100105.94;10287561;28;20498;-78
2022/04/14 15:58:17;;;;;;;22.50;2.72;;;;;;;12.89;54.17;100210.13;10294389;28;20038;-77
2022/04/14 16:03:18;;;;;;;16.75;2.95;;;;;;;12.99;56.32;100279.16;10275925;28;20501;-77
2022/04/14 16:08:19;;;;;;;14.65;2.80;;;;;;;11.57;56.82;100107.81;10277790;28;20042;-78
2022/04/14 16:13:20;;;;;;;15.77;2.95;;;;;;;12.09;57.50;100240.94;10295131;28;20046;-77
2022/04/14 16:18:21;;;;;;;35.15;3.97;;;;;;;12.18;58.33;100302.13;10295688;28;20046;-76
2022/04/14 16:23:22;;;;;;;19.17;2.78;;;;;;;11.52;59.16;100232.56;10294910;28;20051;-76
2022/04/14 16:28:23;;;;;;;13.93;3.85;;;;;;;11.88;60.45;100328.66;10293493;28;20502;-76
2022/04/14 16:33:24;;;;;;;13.65;6.38;;;;;;;11.62;61.63;100312.97;10302389;28;20055;-76
2022/04/14 16:38:25;;;;;;;11.02;3.80;;;;;;;10.98;62.13;100230.72;10291432;28;20065;-75
2022/04/14 16:43:26;;;;;;;10.45;3.28;;;;;;;10.79;62.90;100233.75;10291075;28;20108;-76
2022/04/14 16:48:27;;;;;;;8.52;2.63;;;;;;;11.19;64.06;100323.16;10268236;28;20043;-76
2022/04/14 16:53:28;;;;;;;34.75;3.45;;;;;;;11.05;64.13;100340.66;10265966;28;20050;-78
2022/04/14 16:58:29;;;;;;;5.63;2.70;;;;;;;10.66;64.83;100324.66;10302391;28;20043;-76
2022/04/14 17:03:30;;;;;;;10.48;2.30;;;;;;;11.01;65.41;100403.13;10307288;28;20086;-75
2022/04/14 17:08:31;;;;;;;7.95;3.42;;;;;;;10.16;66.26;100291.13;10313395;28;20046;-76
2022/04/14 17:13:32;;;;;;;7.40;2.33;;;;;;;10.54;67.66;100374.63;10290205;28;20066;-75
2022/04/14 17:18:32;;;;;;;7.88;2.10;;;;;;;10.77;68.47;100441.22;10299884;28;20521;-76
2022/04/14 17:28:53;;;;;;;9.25;1.77;;;;;;;10.65;69.58;100403.53;10315133;28;20042;-75
2022/04/14 17:33:53;;;;;;;4.45;2.00;;;;;;;10.57;69.76;100398.19;10303689;28;20566;-75
2022/04/14 17:38:54;;;;;;;3.45;1.95;;;;;;;10.60;69.82;100418.28;10294396;28;20042;-78
2022/04/14 17:43:56;;;;;;;3.08;1.80;;;;;;;10.66;70.36;100450.34;10296226;28;20562;-75
2022/04/14 17:48:56;;;;;;;3.92;2.30;;;;;;;10.75;70.64;100451.16;10334583;28;20046;-75
2022/04/14 17:53:57;;;;;;;7.13;3.08;;;;;;;10.81;70.66;100458.47;10321158;28;20042;-76
2022/04/14 17:58:58;;;;;;;6.60;2.83;;;;;;;10.77;70.24;100435.91;10311623;28;20450;-81
2022/04/14 18:03:59;;;;;;;4.68;2.90;;;;;;;10.80;70.69;100458.63;10285732;28;20149;-84
2022/04/14 18:09:00;;;;;;;4.20;2.40;;;;;;;9.75;71.03;100284.00;10306912;28;20049;-87
2022/04/14 18:14:01;;;;;;;5.25;3.40;;;;;;;10.68;71.71;100466.13;10294483;28;20409;-88
2022/04/14 18:19:02;;;;;;;5.30;2.47;;;;;;;10.44;72.63;100456.28;10292468;28;20392;-84
2022/04/14 18:24:03;;;;;;;16.98;2.88;;;;;;;10.50;73.13;100487.53;10291951;28;20046;-86
2022/04/14 18:29:04;;;;;;;4.20;2.20;;;;;;;9.77;73.29;100364.22;10292576;28;20043;-78
2022/04/14 18:34:06;;;;;;;5.97;2.38;;;;;;;9.74;73.21;100364.56;10307869;28;20042;-74
2022/04/14 18:39:07;;;;;;;10.10;2.55;;;;;;;10.54;73.31;100490.69;10281181;28;20038;-75
2022/04/14 18:44:08;;;;;;;3.88;2.47;;;;;;;10.49;73.30;100499.13;10311359;28;20065;-74
2022/04/14 18:49:09;;;;;;;14.98;2.47;;;;;;;10.32;74.26;100485.00;10310602;28;20078;-74
2022/04/14 18:54:10;;;;;;;5.43;2.22;;;;;;;10.39;75.19;100515.22;10310452;28;20034;-74
2022/04/14 18:59:11;;;;;;;4.75;2.08;;;;;;;10.18;75.84;100510.31;10311136;28;20049;-74
2022/04/14 19:04:12;;;;;;;4.78;2.53;;;;;;;9.15;75.87;100363.66;10282264;28;20057;-74
2022/04/14 19:09:12;;;;;;;9.60;2.38;;;;;;;9.47;76.17;100415.19;10294660;28;20046;-75
2022/04/14 19:14:13;;;;;;;9.75;5.85;;;;;;;9.32;75.83;100386.63;10294246;28;20138;-75
2022/04/14 19:19:14;;;;;;;9.75;4.68;;;;;;;8.85;75.66;100319.97;10251623;29;20043;-73
2022/04/14 19:24:15;;;;;;;18.50;9.50;;;;;;;9.74;76.17;100475.16;10251674;29;20399;-74
2022/04/14 19:29:16;;;;;;;14.88;7.60;;;;;;;9.86;76.74;100495.09;10252042;28;20039;-74
2022/04/14 19:34:17;;;;;;;12.88;5.53;;;;;;;9.69;77.07;100494.22;10259027;29;20039;-74
2022/04/14 19:39:17;;;;;;;62.97;36.92;;;;;;;9.02;77.19;100416.28;10258602;29;20043;-74
2022/04/14 19:44:18;;;;;;;19.30;11.43;;;;;;;8.12;78.16;100299.91;10258221;29;20478;-74
2022/04/14 19:49:19;;;;;;;9.80;5.60;;;;;;;7.59;78.86;100229.38;10258339;29;20137;-74
2022/04/14 19:54:25;;;;;;;7.72;3.10;;;;;;;8.44;79.11;100383.25;10258180;29;20528;-74
2022/04/14 19:59:25;;;;;;;7.30;3.08;;;;;;;8.74;78.81;100424.38;10257868;28;20039;-74
2022/04/14 20:04:26;;;;;;;12.13;5.10;;;;;;;9.21;78.85;100514.13;10258302;28;20511;-74
2022/04/14 20:09:27;;;;;;;10.68;5.43;;;;;;;9.08;78.56;100487.19;10258436;29;20124;-74
2022/04/14 20:14:30;;;;;;;11.98;4.38;;;;;;;9.47;78.72;100553.06;10256941;29;20066;-74
2022/04/14 20:19:31;;;;;;;6.97;3.97;;;;;;;8.55;78.91;100420.06;10257233;29;20042;-74
2022/04/14 20:24:32;;;;;;;9.10;3.67;;;;;;;8.13;79.14;100351.84;10256714;29;20562;-74
2022/04/14 20:29:33;;;;;;;9.88;4.10;;;;;;;9.40;79.70;100552.88;10257202;29;20047;-74
2022/04/14 20:34:33;;;;;;;7.13;3.78;;;;;;;9.20;79.62;100536.31;10255579;29;20495;-74
2022/04/14 20:39:34;;;;;;;5.50;3.63;;;;;;;9.09;80.27;100537.41;10255795;29;20071;-73
2022/04/14 20:44:35;;;;;;;7.53;3.67;;;;;;;8.47;80.65;100445.66;10256250;28;20039;-74
2022/04/14 20:49:36;;;;;;;6.85;2.83;;;;;;;9.14;81.11;100553.66;10254367;29;20415;-75
2022/04/14 20:54:37;;;;;;;6.78;3.38;;;;;;;8.67;81.31;100471.84;10254448;28;20043;-74
2022/04/14 20:59:37;;;;;;;7.55;3.67;;;;;;;9.11;81.76;100553.97;10255499;28;20503;-73
2022/04/14 21:04:39;;;;;;;10.95;4.15;;;;;;;7.73;82.85;100398.06;10256060;29;20202;-74
2022/04/14 21:09:40;;;;;;;8.13;4.35;;;;;;;8.67;83.28;100558.38;10254264;29;20043;-74
2022/04/14 21:14:41;;;;;;;8.60;3.80;;;;;;;8.28;83.19;100518.06;10256037;29;20051;-73
2022/04/14 21:19:41;;;;;;;5.10;3.60;;;;;;;8.03;83.73;100496.63;10254963;29;20538;-74
2022/04/14 21:24:42;;;;;;;5.97;3.78;;;;;;;8.20;83.83;100550.56;10255448;29;20055;-73
2022/04/14 21:29:44;;;;;;;9.63;4.03;;;;;;;7.78;84.96;100522.78;10237413;29;20043;-74
2022/04/14 21:34:45;;;;;;;6.95;3.95;;;;;;;7.25;85.47;100437.97;10255275;29;20455;-73
2022/04/14 21:39:46;;;;;;;5.75;3.63;;;;;;;7.70;85.84;100508.59;10252421;29;20160;-74
2022/04/14 21:44:47;;;;;;;5.43;3.55;;;;;;;7.75;86.04;100544.22;10252267;29;20133;-73
2022/04/14 21:49:48;;;;;;;5.50;3.58;;;;;;;7.20;86.37;100458.69;10253296;29;20043;-74
2022/04/14 21:54:49;;;;;;;5.97;3.47;;;;;;;7.77;86.29;100544.06;10251781;28;20475;-74
2022/04/14 21:59:49;;;;;;;7.20;3.85;;;;;;;7.84;85.81;100533.72;10251249;29;20077;-74
2022/04/14 22:04:51;;;;;;;6.20;3.95;;;;;;;7.65;86.18;100498.44;10253161;29;20043;-74
2022/04/14 22:09:52;;;;;;;14.23;3.75;;;;;;;8.16;86.01;100578.28;10253078;29;20484;-74
2022/04/14 22:14:53;;;;;;;16.45;4.97;;;;;;;7.36;86.08;100461.56;10252075;29;20070;-74
2022/04/14 22:19:53;;;;;;;20.42;5.03;;;;;;;7.45;86.64;100495.06;10253228;29;20042;-74
2022/04/14 22:24:55;;;;;;;15.85;4.88;;;;;;;8.10;87.33;100576.22;10252596;29;20488;-74
2022/04/14 22:29:56;;;;;;;16.48;4.45;;;;;;;8.21;87.21;100578.69;10252555;29;20090;-74
2022/04/14 22:34:56;;;;;;;6.80;4.32;;;;;;;8.26;87.88;100581.72;10252518;29;20073;-74
2022/04/14 22:39:58;;;;;;;11.95;4.15;;;;;;;8.35;87.22;100582.66;10253194;29;20039;-74
2022/04/14 22:44:58;;;;;;;12.65;4.50;;;;;;;8.42;87.09;100586.41;10250832;29;20133;-74
2022/04/14 22:49:59;;;;;;;15.60;4.85;;;;;;;8.27;86.95;100548.97;10251936;29;20126;-74
2022/04/14 22:55:01;;;;;;;8.50;3.63;;;;;;;8.20;86.26;100539.97;10251306;29;20604;-74
2022/04/14 23:00:07;;;;;;;10.65;4.43;;;;;;;8.36;87.15;100579.84;10234987;28;20043;-74
2022/04/14 23:05:08;;;;;;;8.18;4.20;;;;;;;7.47;86.59;100465.81;10256780;28;20526;-74
2022/04/14 23:10:11;;;;;;;12.07;4.35;;;;;;;8.17;86.98;100575.50;10264211;28;20101;-74
2022/04/14 23:15:12;;;;;;;10.82;4.40;;;;;;;7.37;87.16;100447.38;10264284;28;20039;-74
2022/04/14 23:20:18;;;;;;;10.90;4.03;;;;;;;7.72;87.14;100501.38;10264198;29;20047;-74